EmailTwitter


Surface observations / Quebec / CYHU (71371)

Regions: Quebec | Canada | USA | Europe | France | UK | Elsewhere
Station
Display
Info & Location for CYHU (71371) | Help decoding METAR

Weather Conditions observed on 2018/02/24 at 10:00 UTC at MONTREAL/ST HUBE, QB (CYHU)

Sky conditions: overcast.

Temperature: 3.0 Celsius.

Dewpoint: 1.0 Celsius.

Relative Humidity: 87%

Windchill Factor: -1.

Winds: Southwest at 15 km/h or 8 knots.

Mean Sea level Pressure: 101.70 kilopascals.

Altimeter Setting (QNH): 101.66 kilopascals or 30.02 inches of mercury.

Horizontal visibility: 9.00 statute miles or 14.40 kilometers.

Height of the Ceiling: 488 metres ( 1600 feet ).

Coded METAR:

CYHU 241000Z AUTO 23008KT 9SM OVC016 03/01 A3002 RMK SLP170=